createdAt,value
2023-02-11T00:02:24.286Z,60.11
2023-02-11T00:05:26.234Z,60.15
2023-02-11T00:08:28.675Z,60.78
2023-02-11T00:11:30.729Z,60.96
2023-02-11T00:14:32.695Z,60.50
2023-02-11T00:17:34.657Z,60.79
2023-02-11T00:20:39.226Z,61.33
2023-02-11T00:23:41.796Z,61.43
2023-02-11T00:26:43.783Z,61.20
2023-02-11T00:29:45.836Z,61.25
2023-02-11T00:32:47.774Z,61.12
2023-02-11T00:35:50.151Z,61.07
2023-02-11T00:38:55.268Z,60.50
2023-02-11T00:41:58.120Z,60.87
2023-02-11T00:45:00.085Z,60.73
2023-02-11T00:48:02.080Z,60.54
2023-02-11T00:51:04.483Z,61.10
2023-02-11T00:54:06.549Z,61.25
2023-02-11T00:57:08.484Z,61.80
2023-02-11T01:00:14.059Z,62.45
2023-02-11T01:03:16.175Z,62.76
2023-02-11T01:06:18.990Z,62.14
2023-02-11T01:09:21.345Z,62.26
2023-02-11T01:12:23.580Z,62.46
2023-02-11T01:15:26.049Z,62.42
2023-02-11T01:18:28.206Z,62.91
2023-02-11T01:21:30.248Z,62.77
2023-02-11T01:24:32.359Z,63.09
2023-02-11T01:27:35.054Z,62.90
2023-02-11T01:30:37.048Z,63.10
2023-02-11T01:33:39.173Z,63.14
2023-02-11T01:36:42.073Z,63.19
2023-02-11T01:39:44.129Z,63.23
2023-02-11T01:42:49.433Z,63.37
2023-02-11T01:45:56.022Z,63.42
2023-02-11T01:49:05.412Z,63.66
2023-02-11T01:52:13.029Z,63.59
2023-02-11T01:55:34.239Z,64.31
2023-02-11T01:58:41.726Z,64.35
2023-02-11T02:01:49.289Z,64.31
2023-02-11T02:05:02.757Z,64.23
2023-02-11T02:08:44.458Z,64.82
2023-02-11T02:11:46.391Z,65.47
2023-02-11T02:14:48.973Z,65.38
2023-02-11T02:18:24.730Z,66.31
2023-02-11T02:22:04.248Z,66.08
2023-02-11T02:25:12.935Z,66.36
2023-02-11T02:28:49.926Z,66.25
2023-02-11T02:32:10.466Z,66.23
2023-02-11T02:35:24.647Z,66.12
2023-02-11T02:38:41.044Z,66.59
2023-02-11T02:41:44.297Z,66.74
2023-02-11T02:44:53.555Z,66.42
2023-02-11T02:47:56.021Z,66.40
2023-02-11T02:51:06.650Z,66.37
2023-02-11T02:54:39.145Z,66.83
2023-02-11T02:58:05.559Z,66.78
2023-02-11T03:01:22.234Z,67.18
2023-02-11T03:04:40.299Z,66.61
2023-02-11T03:07:52.407Z,66.32
2023-02-11T03:10:56.943Z,66.54
2023-02-11T03:14:04.125Z,62.78
2023-02-11T03:17:08.772Z,62.48
2023-02-11T03:20:14.800Z,61.50
2023-02-11T03:23:28.480Z,61.60
2023-02-11T03:27:07.043Z,61.85
2023-02-11T03:30:22.865Z,61.64
2023-02-11T03:33:29.407Z,61.48
2023-02-11T03:36:51.823Z,61.44
2023-02-11T03:39:59.667Z,60.45
2023-02-11T03:43:09.161Z,60.43
2023-02-11T03:46:15.339Z,61.04
2023-02-11T03:49:21.655Z,61.27
2023-02-11T03:52:26.649Z,61.13
2023-02-11T03:55:30.256Z,60.92
2023-02-11T03:58:32.189Z,60.50
2023-02-11T04:01:34.436Z,61.17
2023-02-11T04:04:36.429Z,60.49
2023-02-11T04:07:38.372Z,60.00
2023-02-11T04:10:40.308Z,58.84
2023-02-11T04:13:42.268Z,58.32
2023-02-11T04:16:44.366Z,58.08
2023-02-11T04:19:46.377Z,57.60
2023-02-11T04:22:48.409Z,57.06
2023-02-11T04:25:51.316Z,57.20
2023-02-11T04:28:53.387Z,57.42
2023-02-11T04:31:55.909Z,58.28
2023-02-11T04:34:57.961Z,58.14
2023-02-11T04:37:59.846Z,58.86
2023-02-11T04:41:01.826Z,59.14
2023-02-11T04:44:04.233Z,59.28
2023-02-11T04:47:06.982Z,58.95
2023-02-11T04:50:09.471Z,59.79
2023-02-11T04:53:11.387Z,59.98
2023-02-11T04:56:13.336Z,59.35
2023-02-11T04:59:15.662Z,59.00
2023-02-11T05:02:17.709Z,58.06
2023-02-11T05:05:19.761Z,57.53
2023-02-11T05:08:21.818Z,57.26
2023-02-11T05:11:25.811Z,56.53
2023-02-11T05:14:27.800Z,55.68
2023-02-11T05:17:29.768Z,56.20
2023-02-11T05:20:31.787Z,56.91
2023-02-11T05:23:34.379Z,57.71
2023-02-11T05:26:36.491Z,57.34
2023-02-11T05:29:38.728Z,57.33
2023-02-11T05:32:40.826Z,57.49
2023-02-11T05:35:42.830Z,56.85
2023-02-11T05:38:44.753Z,56.16
2023-02-11T05:41:46.716Z,55.51
2023-02-11T05:44:50.630Z,55.40
2023-02-11T05:47:52.752Z,54.87
2023-02-11T05:50:54.752Z,55.22
2023-02-11T05:53:56.658Z,54.75
2023-02-11T05:56:58.647Z,55.38
2023-02-11T06:00:00.664Z,54.55
2023-02-11T06:03:04.569Z,54.77
2023-02-11T06:06:10.636Z,54.89
2023-02-11T06:09:12.642Z,54.06
2023-02-11T06:12:14.558Z,53.04
2023-02-11T06:15:16.612Z,53.38
2023-02-11T06:18:18.529Z,53.90
2023-02-11T06:21:20.495Z,53.27
2023-02-11T06:24:47.647Z,51.48
2023-02-11T06:27:44.623Z,50.90
2023-02-11T06:30:46.652Z,50.61
2023-02-11T06:33:50.318Z,50.23
2023-02-11T06:36:52.286Z,49.59
2023-02-11T06:39:54.273Z,48.94
2023-02-11T06:42:56.282Z,48.59
2023-02-11T06:45:58.298Z,48.27
2023-02-11T06:49:00.157Z,48.15
2023-02-11T06:52:02.184Z,48.73
2023-02-11T06:55:04.364Z,47.72
2023-02-11T06:58:06.667Z,48.39
2023-02-11T07:01:11.417Z,48.03
2023-02-11T07:04:14.917Z,48.02
2023-02-11T07:07:16.870Z,46.67
2023-02-11T07:10:18.949Z,45.63
2023-02-11T07:13:20.868Z,44.97
2023-02-11T07:16:23.457Z,44.89
2023-02-11T07:19:25.473Z,44.06
2023-02-11T07:22:27.599Z,44.35
2023-02-11T07:25:29.657Z,44.06
2023-02-11T07:28:31.947Z,43.07
2023-02-11T07:31:34.251Z,43.41
2023-02-11T07:34:36.291Z,42.93
2023-02-11T07:37:38.337Z,42.86
2023-02-11T07:40:40.478Z,42.19
2023-02-11T07:43:42.930Z,42.05
2023-02-11T07:46:45.780Z,41.37
2023-02-11T07:49:47.860Z,41.32
2023-02-11T07:52:49.836Z,41.75
2023-02-11T07:55:52.099Z,42.94
2023-02-11T07:58:55.370Z,41.43
2023-02-11T08:01:57.521Z,42.02
2023-02-11T08:04:59.512Z,41.86
2023-02-11T08:08:01.480Z,42.48
2023-02-11T08:11:08.668Z,43.22
2023-02-11T08:14:11.917Z,43.35
2023-02-11T08:17:13.842Z,43.46
2023-02-11T08:20:15.943Z,43.43
2023-02-11T08:23:17.901Z,42.16
2023-02-11T08:26:25.880Z,41.53
2023-02-11T08:29:27.893Z,42.60
2023-02-11T08:32:29.904Z,41.92
2023-02-11T08:35:36.598Z,41.75
2023-02-11T08:38:38.755Z,41.82
2023-02-11T08:41:40.841Z,41.83
2023-02-11T08:44:43.432Z,42.27
2023-02-11T08:47:45.408Z,41.83
2023-02-11T08:50:47.518Z,41.79
2023-02-11T08:53:50.872Z,41.89
2023-02-11T08:56:52.798Z,41.71
2023-02-11T08:59:54.843Z,40.88
2023-02-11T09:02:56.790Z,39.91
2023-02-11T09:05:58.764Z,40.14
2023-02-11T09:09:00.696Z,39.65
2023-02-11T09:12:02.660Z,39.79
2023-02-11T09:15:04.942Z,39.84
2023-02-11T09:18:07.579Z,39.52
2023-02-11T09:21:10.447Z,40.10
2023-02-11T09:24:12.519Z,40.03
2023-02-11T09:27:14.560Z,40.37
2023-02-11T09:30:16.517Z,39.85
2023-02-11T09:33:18.610Z,39.07
2023-02-11T09:36:31.873Z,39.10
2023-02-11T09:39:33.854Z,39.49
2023-02-11T09:42:53.967Z,40.93
2023-02-11T09:45:56.683Z,40.38
2023-02-11T09:49:00.279Z,40.53
2023-02-11T09:52:07.716Z,39.78
2023-02-11T09:55:27.548Z,39.40
2023-02-11T09:58:39.159Z,38.86
2023-02-11T10:02:04.891Z,38.81
2023-02-11T10:05:13.920Z,37.79
2023-02-11T10:09:12.871Z,35.71
2023-02-11T10:12:39.201Z,32.01
2023-02-11T10:16:15.069Z,30.47
2023-02-11T10:20:01.259Z,30.18
2023-02-11T10:23:13.593Z,30.28
2023-02-11T10:26:18.669Z,30.71
2023-02-11T10:29:42.294Z,30.65
2023-02-11T10:32:52.868Z,28.34
2023-02-11T10:35:54.911Z,29.76
2023-02-11T10:39:10.755Z,30.85
2023-02-11T10:42:14.597Z,31.70
2023-02-11T10:45:27.835Z,33.72
2023-02-11T10:48:53.019Z,32.60
2023-02-11T10:52:14.326Z,33.79
2023-02-11T10:55:21.306Z,33.75
2023-02-11T10:58:45.850Z,32.73
2023-02-11T11:02:00.775Z,33.53
2023-02-11T11:05:16.420Z,34.17
2023-02-11T11:08:19.925Z,33.52
2023-02-11T11:11:26.413Z,33.68
2023-02-11T11:14:29.761Z,33.98
2023-02-11T11:17:31.837Z,34.34
2023-02-11T11:20:36.324Z,34.61
2023-02-11T11:23:40.122Z,34.65
2023-02-11T11:26:45.352Z,34.31
2023-02-11T11:29:50.265Z,33.91
2023-02-11T11:32:52.705Z,34.34
2023-02-11T11:36:21.263Z,34.43
2023-02-11T11:39:27.994Z,33.92
2023-02-11T11:42:34.948Z,33.99
2023-02-11T11:45:37.063Z,34.16
2023-02-11T11:48:42.699Z,34.78
2023-02-11T11:51:55.224Z,33.73
2023-02-11T11:55:22.601Z,33.51
2023-02-11T11:58:24.826Z,34.01
2023-02-11T12:01:45.739Z,33.69
2023-02-11T12:04:54.057Z,33.97
2023-02-11T12:08:29.335Z,35.47
2023-02-11T12:11:38.390Z,36.19
2023-02-11T12:14:43.010Z,36.89
2023-02-11T12:18:13.085Z,37.14
2023-02-11T12:21:43.085Z,37.01
2023-02-11T12:24:45.191Z,37.04
2023-02-11T12:28:02.310Z,36.41
2023-02-11T12:31:19.514Z,35.54
2023-02-11T12:34:24.893Z,35.72
2023-02-11T12:37:26.975Z,35.50
2023-02-11T12:40:59.455Z,35.54
2023-02-11T12:44:01.886Z,35.30
2023-02-11T12:47:29.106Z,34.28
2023-02-11T12:50:34.274Z,33.90
2023-02-11T12:54:10.436Z,33.41
2023-02-11T12:57:37.447Z,33.92
2023-02-11T13:00:47.864Z,33.46
2023-02-11T13:04:20.262Z,33.18
2023-02-11T13:07:37.282Z,33.06
2023-02-11T13:10:43.729Z,33.18
2023-02-11T13:13:46.335Z,33.76
2023-02-11T13:16:51.190Z,33.49
2023-02-11T13:20:03.936Z,32.75
2023-02-11T13:23:32.180Z,33.23
2023-02-11T13:26:58.289Z,33.67
2023-02-11T13:30:22.770Z,33.97
2023-02-11T13:33:36.307Z,33.63
2023-02-11T13:36:39.875Z,34.18
2023-02-11T13:39:42.040Z,34.77
2023-02-11T13:42:53.330Z,35.12
2023-02-11T13:46:01.400Z,35.74
2023-02-11T13:49:03.643Z,35.11
2023-02-11T13:52:18.921Z,36.19
2023-02-11T13:55:24.507Z,36.66
2023-02-11T13:58:30.062Z,36.33
2023-02-11T14:02:12.693Z,36.20
2023-02-11T14:05:50.398Z,37.60
2023-02-11T14:09:11.980Z,36.88
2023-02-11T14:12:24.397Z,37.06
2023-02-11T14:15:38.351Z,37.07
2023-02-11T14:18:52.853Z,37.02
2023-02-11T14:22:12.146Z,36.83
2023-02-11T14:25:23.243Z,37.22
2023-02-11T14:28:34.595Z,37.92
2023-02-11T14:31:55.522Z,37.57
2023-02-11T14:35:37.829Z,37.53
2023-02-11T14:38:52.414Z,37.70
2023-02-11T14:41:55.573Z,38.01
2023-02-11T14:45:04.835Z,38.29
2023-02-11T14:48:17.957Z,38.86
2023-02-11T14:51:29.136Z,38.78
2023-02-11T14:54:32.578Z,39.26
2023-02-11T14:57:35.776Z,39.02
2023-02-11T15:01:14.104Z,39.92
2023-02-11T15:04:40.766Z,39.78
2023-02-11T15:07:52.438Z,39.97
2023-02-11T15:10:55.996Z,40.52
2023-02-11T15:14:07.234Z,41.19
2023-02-11T15:17:10.096Z,41.29
2023-02-11T15:20:26.288Z,41.63
2023-02-11T15:23:31.026Z,42.88
2023-02-11T15:26:34.068Z,42.76
2023-02-11T15:29:40.069Z,43.37
2023-02-11T15:32:45.405Z,43.84
2023-02-11T15:35:47.845Z,44.16
2023-02-11T15:39:29.449Z,45.32
2023-02-11T15:42:43.887Z,46.01
2023-02-11T15:46:02.494Z,46.19
2023-02-11T15:49:06.756Z,46.20
2023-02-11T15:52:09.937Z,47.49
2023-02-11T15:55:14.954Z,47.56
2023-02-11T15:58:18.699Z,48.20
2023-02-11T16:01:34.280Z,48.51
2023-02-11T16:04:38.322Z,49.46
2023-02-11T16:07:48.080Z,50.63
2023-02-11T16:11:02.692Z,50.75
2023-02-11T16:14:22.367Z,51.30
2023-02-11T16:17:31.064Z,52.16
2023-02-11T16:20:34.955Z,52.73
2023-02-11T16:23:45.428Z,52.80
2023-02-11T16:26:53.274Z,52.79
2023-02-11T16:29:57.168Z,53.23
2023-02-11T16:32:59.942Z,53.60
2023-02-11T16:36:20.039Z,54.17
2023-02-11T16:39:23.370Z,53.98
2023-02-11T16:42:26.067Z,53.83
2023-02-11T16:45:29.040Z,53.64
2023-02-11T16:48:33.536Z,54.09
2023-02-11T16:51:41.446Z,53.96
2023-02-11T16:54:44.710Z,54.41
2023-02-11T16:57:47.680Z,54.15
2023-02-11T17:00:52.052Z,53.97
2023-02-11T17:03:56.628Z,54.01
2023-02-11T17:06:59.909Z,53.75
2023-02-11T17:10:03.018Z,54.01
2023-02-11T17:13:06.035Z,54.30
2023-02-11T17:16:21.045Z,53.93
2023-02-11T17:19:24.805Z,54.13
2023-02-11T17:22:27.811Z,53.24
2023-02-11T17:25:30.900Z,53.15
2023-02-11T17:28:34.873Z,52.84
2023-02-11T17:31:38.087Z,52.57
2023-02-11T17:34:41.411Z,53.16
2023-02-11T17:37:43.971Z,52.87
2023-02-11T17:40:46.933Z,52.70
2023-02-11T17:43:49.940Z,52.29
2023-02-11T17:46:54.151Z,52.40
2023-02-11T17:49:57.607Z,52.10
2023-02-11T17:53:01.246Z,51.45
2023-02-11T17:56:06.686Z,51.36
2023-02-11T17:59:11.803Z,51.31
2023-02-11T18:02:15.012Z,51.18
2023-02-11T18:05:17.922Z,51.35
2023-02-11T18:08:22.266Z,51.36
2023-02-11T18:11:45.230Z,51.61
2023-02-11T18:14:47.983Z,51.53
2023-02-11T18:17:50.990Z,51.87
2023-02-11T18:21:02.128Z,51.57
2023-02-11T18:24:07.048Z,51.36
2023-02-11T18:27:10.172Z,51.91
2023-02-11T18:30:18.363Z,52.17
2023-02-11T18:33:21.358Z,52.11
2023-02-11T18:36:24.115Z,51.82
2023-02-11T18:39:26.819Z,51.52
2023-02-11T18:42:30.001Z,51.82
2023-02-11T18:45:33.179Z,52.26
2023-02-11T18:48:39.776Z,52.08
2023-02-11T18:51:42.473Z,52.46
2023-02-11T18:54:47.269Z,52.92
2023-02-11T18:57:50.306Z,52.52
2023-02-11T19:00:53.302Z,52.40
2023-02-11T19:04:00.038Z,52.49
2023-02-11T19:07:05.171Z,52.76
2023-02-11T19:10:09.515Z,53.01
2023-02-11T19:13:14.293Z,53.04
2023-02-11T19:16:20.594Z,52.69
2023-02-11T19:19:26.022Z,53.06
2023-02-11T19:22:29.375Z,53.10
2023-02-11T19:25:32.830Z,53.15
2023-02-11T19:28:38.109Z,53.01
2023-02-11T19:31:41.734Z,53.06
2023-02-11T19:34:45.120Z,53.27
2023-02-11T19:37:48.515Z,53.58
2023-02-11T19:40:57.264Z,53.66
2023-02-11T19:44:02.238Z,53.57
2023-02-11T19:47:05.596Z,53.37
2023-02-11T19:50:10.948Z,53.66
2023-02-11T19:53:14.096Z,54.28
2023-02-11T19:56:19.766Z,54.40
2023-02-11T19:59:23.936Z,54.20
2023-02-11T20:02:26.868Z,54.29
2023-02-11T20:05:29.801Z,54.41
2023-02-11T20:08:35.345Z,54.78
2023-02-11T20:11:40.138Z,54.77
2023-02-11T20:14:43.306Z,54.78
2023-02-11T20:17:47.626Z,54.89
2023-02-11T20:20:50.642Z,54.79
2023-02-11T20:23:54.580Z,54.90
2023-02-11T20:26:57.893Z,55.11
2023-02-11T20:30:01.123Z,54.93
2023-02-11T20:33:05.643Z,54.99
2023-02-11T20:36:15.536Z,55.88
2023-02-11T20:39:19.353Z,55.68
2023-02-11T20:42:23.418Z,56.21
2023-02-11T20:45:27.486Z,56.15
2023-02-11T20:48:31.041Z,56.32
2023-02-11T20:51:34.925Z,56.26
2023-02-11T20:54:39.197Z,56.53
2023-02-11T20:57:41.892Z,56.61
2023-02-11T21:00:46.387Z,56.64
2023-02-11T21:04:05.798Z,57.11
2023-02-11T21:07:08.747Z,57.04
2023-02-11T21:10:11.713Z,57.69
2023-02-11T21:13:14.509Z,57.11
2023-02-11T21:16:25.215Z,57.58
2023-02-11T21:19:28.561Z,57.81
2023-02-11T21:22:31.974Z,58.02
2023-02-11T21:25:35.292Z,58.09
2023-02-11T21:28:40.890Z,57.87
2023-02-11T21:31:44.348Z,58.11
2023-02-11T21:34:48.252Z,58.55
2023-02-11T21:37:51.094Z,58.39
2023-02-11T21:40:55.327Z,58.44
2023-02-11T21:43:58.190Z,58.38
2023-02-11T21:47:01.094Z,58.33
2023-02-11T21:50:03.942Z,58.45
2023-02-11T21:53:07.127Z,58.29
2023-02-11T21:56:13.166Z,58.61
2023-02-11T21:59:16.975Z,59.82
2023-02-11T22:02:19.434Z,60.98
2023-02-11T22:05:22.188Z,61.54
2023-02-11T22:08:24.267Z,61.30
2023-02-11T22:11:26.443Z,62.70
2023-02-11T22:14:31.261Z,62.72
2023-02-11T22:17:34.785Z,61.92
2023-02-11T22:20:36.923Z,61.91
2023-02-11T22:23:40.099Z,61.85
2023-02-11T22:26:42.165Z,62.29
2023-02-11T22:29:44.782Z,62.01
2023-02-11T22:32:47.615Z,61.60
2023-02-11T22:35:49.771Z,62.50
2023-02-11T22:38:52.453Z,62.33
2023-02-11T22:41:56.578Z,61.93
2023-02-11T22:44:58.567Z,62.16
2023-02-11T22:48:00.690Z,62.23
2023-02-11T22:51:19.584Z,62.29
2023-02-11T22:54:21.713Z,62.21
2023-02-11T22:57:23.765Z,62.51
2023-02-11T23:00:26.661Z,62.40
2023-02-11T23:03:29.292Z,62.23
2023-02-11T23:06:31.668Z,62.04
2023-02-11T23:09:33.647Z,62.41
2023-02-11T23:12:35.592Z,62.13
2023-02-11T23:15:42.340Z,62.35
2023-02-11T23:18:46.516Z,61.86
2023-02-11T23:21:51.124Z,62.31
2023-02-11T23:24:53.301Z,62.29
2023-02-11T23:27:55.215Z,62.06
2023-02-11T23:30:57.281Z,61.96
2023-02-11T23:33:59.642Z,62.12
2023-02-11T23:37:01.552Z,62.64
2023-02-11T23:40:04.430Z,62.86
2023-02-11T23:43:06.380Z,62.70
2023-02-11T23:46:09.331Z,62.73
2023-02-11T23:49:11.413Z,62.66
2023-02-11T23:52:13.376Z,62.56
2023-02-11T23:55:15.397Z,62.56
2023-02-11T23:58:17.429Z,63.07
